ホバート の空港の天気 - METARとTAF

ホバート国際空港 ( YMHB / HBA ) - オーストラリア タスマニア州、Cambridge
飛行場実況気象(Metar)
観測時間12/14 17:00 AEDT (12/14 06:00 UTC)
風向・風速東 6m/s
視程10km以上
天気現象
少しの雲 雲底高度 910m
全天の8割程度の雲 雲底高度 1340m
気温20℃
湿度60%
気圧1015hPa
METARYMHB 140600Z 09012KT 9999 FEW030 BKN044 20/12 Q1015 RF00.0/000.0
過去の天気等 Google飛行場航空写真 Wunderground天気予報

過去48時間のMETAR

飛行場予報(TAF)
発表時間: 12/14 16:33 AEDT (12/14 05:33 UTC)
予報対象時間: 14日17時 AEDT ~ 15日17時 AEDT
風向・風速東 8m/s 瞬間風速 13m/s
視程10km以上
全天の8割程度の雲 雲底高度 610m
14日21時 AEDT から
風向・風速東 4m/s
視程10km以上
天気現象弱い雨
全天の8割程度の雲 雲底高度 460m
15日5時 AEDT から
風向・風速東南東 3m/s
視程10km以上
天気現象弱い雨
全天の8割程度の雲 雲底高度 460m
TAF YMHB 140533Z 1406/1506 09015G25KT 9999 BKN020
FM141000 09008KT 9999 -RA BKN015
FM141800 12005KT 9999 -RA BKN015